createdAt,value
2023-01-19T00:00:33.064Z,12.30
2023-01-19T00:03:37.224Z,11.40
2023-01-19T00:06:40.155Z,12.00
2023-01-19T00:09:43.634Z,10.90
2023-01-19T00:12:46.577Z,11.17
2023-01-19T00:15:49.844Z,10.73
2023-01-19T00:18:53.249Z,9.15
2023-01-19T00:21:56.630Z,8.82
2023-01-19T00:24:59.515Z,7.80
2023-01-19T00:28:02.734Z,9.67
2023-01-19T00:31:05.801Z,9.05
2023-01-19T00:34:09.335Z,8.98
2023-01-19T00:37:12.574Z,8.60
2023-01-19T00:40:15.956Z,9.10
2023-01-19T00:43:18.734Z,8.27
2023-01-19T00:46:27.333Z,8.20
2023-01-19T00:49:30.292Z,8.23
2023-01-19T00:52:33.715Z,9.00
2023-01-19T00:55:36.439Z,6.60
2023-01-19T00:58:39.460Z,6.70
2023-01-19T01:01:46.004Z,7.40
2023-01-19T01:04:55.043Z,6.97
2023-01-19T01:07:58.173Z,4.72
2023-01-19T01:11:02.379Z,5.73
2023-01-19T01:14:05.311Z,5.97
2023-01-19T01:17:11.664Z,6.97
2023-01-19T01:20:19.373Z,5.97
2023-01-19T01:23:23.214Z,5.75
2023-01-19T01:26:27.154Z,6.00
2023-01-19T01:29:31.052Z,4.13
2023-01-19T01:32:34.044Z,3.85
2023-01-19T01:35:37.298Z,3.62
2023-01-19T01:38:41.230Z,3.42
2023-01-19T01:41:44.466Z,3.40
2023-01-19T01:44:50.420Z,3.55
2023-01-19T01:47:57.521Z,3.22
2023-01-19T01:51:26.222Z,4.15
2023-01-19T01:54:32.921Z,4.35
2023-01-19T01:57:44.104Z,5.30
2023-01-19T02:01:05.912Z,5.30
2023-01-19T02:04:09.410Z,4.78
2023-01-19T02:07:36.486Z,4.70
2023-01-19T02:11:00.129Z,4.53
2023-01-19T02:14:06.959Z,4.60
2023-01-19T02:17:10.244Z,4.33
2023-01-19T02:20:14.080Z,4.62
2023-01-19T02:23:32.107Z,4.45
2023-01-19T02:26:39.370Z,3.95
2023-01-19T02:29:42.847Z,3.97
2023-01-19T02:32:46.037Z,3.53
2023-01-19T02:35:52.508Z,3.60
2023-01-19T02:39:00.440Z,3.40
2023-01-19T02:42:11.198Z,3.30
2023-01-19T02:45:17.459Z,2.73
2023-01-19T02:48:21.508Z,2.57
2023-01-19T02:51:25.460Z,3.10
2023-01-19T02:54:34.237Z,3.22
2023-01-19T02:57:56.753Z,1.62
2023-01-19T03:01:34.712Z,2.63
2023-01-19T03:04:56.721Z,2.10
2023-01-19T03:08:25.497Z,2.22
2023-01-19T03:11:33.917Z,1.80
2023-01-19T03:14:45.403Z,1.98
2023-01-19T03:17:51.075Z,1.70
2023-01-19T03:20:58.449Z,1.50
2023-01-19T03:24:05.154Z,1.48
2023-01-19T03:27:17.739Z,1.35
2023-01-19T03:30:26.368Z,1.12
2023-01-19T03:33:33.356Z,1.73
2023-01-19T03:36:41.380Z,1.67
2023-01-19T03:39:44.754Z,1.48
2023-01-19T03:42:50.432Z,2.05
2023-01-19T03:45:55.543Z,1.87
2023-01-19T03:48:59.600Z,4.30
2023-01-19T03:52:02.883Z,2.05
2023-01-19T03:55:06.581Z,1.62
2023-01-19T03:58:10.411Z,2.05
2023-01-19T04:01:15.233Z,2.35
2023-01-19T04:04:18.618Z,3.20
2023-01-19T04:07:21.421Z,3.10
2023-01-19T04:10:24.835Z,2.67
2023-01-19T04:13:30.227Z,3.72
2023-01-19T04:16:33.570Z,2.97
2023-01-19T04:19:36.337Z,2.83
2023-01-19T04:22:39.822Z,3.33
2023-01-19T04:25:42.696Z,3.05
2023-01-19T04:28:46.248Z,3.28
2023-01-19T04:31:48.991Z,3.17
2023-01-19T04:34:52.307Z,3.67
2023-01-19T04:37:55.181Z,4.05
2023-01-19T04:40:58.476Z,4.55
2023-01-19T04:44:01.344Z,3.83
2023-01-19T04:47:04.797Z,4.50
2023-01-19T04:50:08.718Z,4.13
2023-01-19T04:53:13.925Z,4.78
2023-01-19T04:56:16.836Z,4.50
2023-01-19T04:59:20.700Z,5.85
2023-01-19T05:02:24.332Z,5.22
2023-01-19T05:05:27.787Z,5.63
2023-01-19T05:08:30.646Z,6.10
2023-01-19T05:11:33.838Z,6.62
2023-01-19T05:14:37.012Z,6.00
2023-01-19T05:17:40.501Z,5.30
2023-01-19T05:20:43.436Z,5.43
2023-01-19T05:23:46.824Z,6.50
2023-01-19T05:26:49.762Z,7.22
2023-01-19T05:29:52.982Z,9.35
2023-01-19T05:32:56.001Z,9.30
2023-01-19T05:35:59.076Z,9.00
2023-01-19T05:39:01.916Z,9.90
2023-01-19T05:42:05.176Z,10.05
2023-01-19T05:45:08.840Z,8.38
2023-01-19T05:48:12.008Z,10.57
2023-01-19T05:51:15.478Z,10.43
2023-01-19T05:54:19.020Z,7.53
2023-01-19T05:57:22.625Z,10.23
2023-01-19T06:00:27.793Z,7.90
2023-01-19T06:03:30.845Z,9.68
2023-01-19T06:06:33.727Z,6.40
2023-01-19T06:09:36.776Z,4.20
2023-01-19T06:12:41.769Z,10.10
2023-01-19T06:15:45.705Z,8.77
2023-01-19T06:18:48.564Z,9.02
2023-01-19T06:21:52.605Z,7.90
2023-01-19T06:24:55.383Z,7.10
2023-01-19T06:27:58.474Z,9.43
2023-01-19T06:31:01.793Z,9.18
2023-01-19T06:34:05.070Z,10.23
2023-01-19T06:37:07.739Z,11.30
2023-01-19T06:40:13.700Z,6.83
2023-01-19T06:43:17.259Z,10.40
2023-01-19T06:46:20.370Z,9.73
2023-01-19T06:49:23.045Z,9.48
2023-01-19T06:52:26.140Z,11.73
2023-01-19T06:55:28.898Z,8.67
2023-01-19T06:58:32.175Z,8.60
2023-01-19T07:01:35.276Z,10.48
2023-01-19T07:04:38.583Z,5.90
2023-01-19T07:07:43.365Z,10.63
2023-01-19T07:11:26.869Z,7.82
2023-01-19T07:14:09.524Z,10.65
2023-01-19T07:17:13.256Z,11.45
2023-01-19T07:20:17.655Z,8.65
2023-01-19T07:23:21.206Z,10.57
2023-01-19T07:26:25.484Z,12.23
2023-01-19T07:29:28.714Z,11.63
2023-01-19T07:32:31.825Z,11.77
2023-01-19T07:35:35.161Z,4.80
2023-01-19T07:38:38.170Z,9.03
2023-01-19T07:41:41.387Z,6.10
2023-01-19T07:44:44.297Z,10.55
2023-01-19T07:47:52.173Z,7.93
2023-01-19T07:51:00.482Z,6.68
2023-01-19T07:54:03.836Z,10.13
2023-01-19T07:57:06.651Z,9.73
2023-01-19T08:00:10.567Z,9.50
2023-01-19T08:03:15.103Z,9.27
2023-01-19T08:06:25.863Z,9.35
2023-01-19T08:09:28.855Z,9.37
2023-01-19T08:12:31.995Z,4.43
2023-01-19T08:15:34.835Z,10.35
2023-01-19T08:18:38.259Z,6.90
2023-01-19T08:21:41.294Z,8.18
2023-01-19T08:24:44.641Z,7.90
2023-01-19T08:27:47.553Z,6.60
2023-01-19T08:30:56.482Z,7.47
2023-01-19T08:33:59.502Z,8.82
2023-01-19T08:37:02.695Z,8.93
2023-01-19T08:40:06.929Z,9.43
2023-01-19T08:43:13.598Z,8.33
2023-01-19T08:46:17.785Z,6.55
2023-01-19T08:49:21.044Z,11.07
2023-01-19T08:52:26.613Z,9.02
2023-01-19T08:55:30.421Z,9.23
2023-01-19T08:58:33.266Z,9.60
2023-01-19T09:01:37.635Z,9.68
2023-01-19T09:04:40.609Z,10.02
2023-01-19T09:07:46.862Z,8.68
2023-01-19T09:10:51.828Z,9.43
2023-01-19T09:13:55.004Z,10.15
2023-01-19T09:16:57.821Z,9.35
2023-01-19T09:20:01.228Z,7.78
2023-01-19T09:23:04.514Z,8.30
2023-01-19T09:26:07.748Z,11.00
2023-01-19T09:29:10.732Z,9.60
2023-01-19T09:32:14.913Z,9.63
2023-01-19T09:35:17.787Z,9.82
2023-01-19T09:38:22.680Z,11.95
2023-01-19T09:41:26.561Z,7.77
2023-01-19T09:44:33.945Z,9.07
2023-01-19T09:47:38.785Z,9.73
2023-01-19T09:50:46.839Z,10.60
2023-01-19T09:54:16.015Z,7.22
2023-01-19T09:57:19.569Z,11.40
2023-01-19T10:00:24.786Z,11.30
2023-01-19T10:03:28.074Z,10.57
2023-01-19T10:06:31.289Z,10.20
2023-01-19T10:09:53.711Z,10.20
2023-01-19T10:13:54.502Z,12.27
2023-01-19T10:17:43.079Z,13.20
2023-01-19T10:20:52.777Z,9.07
2023-01-19T10:24:00.956Z,10.65
2023-01-19T10:27:09.437Z,12.77
2023-01-19T10:30:24.365Z,10.73
2023-01-19T10:33:35.541Z,7.65
2023-01-19T10:36:40.667Z,7.70
2023-01-19T10:39:52.673Z,9.95
2023-01-19T10:42:57.276Z,8.57
2023-01-19T10:46:01.267Z,10.57
2023-01-19T10:49:05.137Z,10.50
2023-01-19T10:52:20.023Z,7.45
2023-01-19T10:55:41.579Z,7.97
2023-01-19T10:58:44.431Z,7.03
2023-01-19T11:02:04.282Z,7.87
2023-01-19T11:05:26.077Z,8.80
2023-01-19T11:08:31.206Z,10.00
2023-01-19T11:11:43.387Z,6.62
2023-01-19T11:14:48.006Z,8.43
2023-01-19T11:17:52.155Z,8.37
2023-01-19T11:20:58.318Z,9.47
2023-01-19T11:24:05.540Z,11.32
2023-01-19T11:27:09.155Z,12.25
2023-01-19T11:30:21.838Z,9.32
2023-01-19T11:33:32.646Z,8.93
2023-01-19T11:36:36.761Z,6.62
2023-01-19T11:39:55.439Z,8.32
2023-01-19T11:42:59.029Z,9.77
2023-01-19T11:46:03.109Z,10.13
2023-01-19T11:49:13.149Z,12.23
2023-01-19T11:52:38.022Z,9.05
2023-01-19T11:55:57.359Z,7.62
2023-01-19T11:59:02.639Z,9.35
2023-01-19T12:02:38.490Z,8.52
2023-01-19T12:05:48.191Z,9.57
2023-01-19T12:09:06.252Z,9.82
2023-01-19T12:12:15.848Z,11.12
2023-01-19T12:15:33.352Z,9.48
2023-01-19T12:19:08.314Z,7.65
2023-01-19T12:22:15.836Z,9.63
2023-01-19T12:25:30.157Z,6.53
2023-01-19T12:28:37.984Z,11.20
2023-01-19T12:31:43.322Z,3.97
2023-01-19T12:34:52.156Z,11.30
2023-01-19T12:37:55.297Z,11.40
2023-01-19T12:41:21.997Z,7.82
2023-01-19T12:44:28.054Z,8.55
2023-01-19T12:47:30.904Z,9.77
2023-01-19T12:50:38.424Z,11.20
2023-01-19T12:53:59.925Z,10.70
2023-01-19T12:57:19.553Z,7.68
2023-01-19T13:00:22.210Z,8.95
2023-01-19T13:03:28.156Z,8.73
2023-01-19T13:06:49.416Z,5.55
2023-01-19T13:09:52.570Z,7.20
2023-01-19T13:13:17.603Z,6.62
2023-01-19T13:16:21.103Z,9.82
2023-01-19T13:19:35.330Z,9.55
2023-01-19T13:22:50.684Z,11.82
2023-01-19T13:26:01.479Z,7.70
2023-01-19T13:29:14.274Z,7.05
2023-01-19T13:32:21.303Z,12.50
2023-01-19T13:35:25.015Z,9.45
2023-01-19T13:38:29.559Z,9.57
2023-01-19T13:41:38.170Z,9.83
2023-01-19T13:44:52.656Z,12.37
2023-01-19T13:47:58.221Z,5.70
2023-01-19T13:51:07.385Z,11.50
2023-01-19T13:54:16.648Z,8.10
2023-01-19T13:57:31.323Z,12.97
2023-01-19T14:00:34.495Z,11.30
2023-01-19T14:03:41.100Z,10.45
2023-01-19T14:06:48.911Z,9.23
2023-01-19T14:10:06.761Z,11.55
2023-01-19T14:13:22.553Z,10.73
2023-01-19T14:16:25.769Z,8.30
2023-01-19T14:19:28.901Z,10.00
2023-01-19T14:22:39.087Z,11.57
2023-01-19T14:25:44.933Z,9.70
2023-01-19T14:28:47.995Z,7.37
2023-01-19T14:32:02.603Z,9.07
2023-01-19T14:35:05.857Z,11.57
2023-01-19T14:38:14.728Z,10.80
2023-01-19T14:41:25.623Z,11.15
2023-01-19T14:44:41.320Z,9.97
2023-01-19T14:47:46.220Z,9.27
2023-01-19T14:51:02.793Z,11.82
2023-01-19T14:54:15.829Z,8.63
2023-01-19T14:57:18.521Z,8.27
2023-01-19T15:00:22.223Z,9.98
2023-01-19T15:03:42.869Z,10.60
2023-01-19T15:06:47.451Z,10.68
2023-01-19T15:09:50.781Z,10.05
2023-01-19T15:12:55.097Z,9.13
2023-01-19T15:15:58.647Z,7.93
2023-01-19T15:19:01.928Z,6.25
2023-01-19T15:22:12.229Z,6.97
2023-01-19T15:25:20.507Z,10.00
2023-01-19T15:28:23.288Z,10.10
2023-01-19T15:31:26.918Z,6.68
2023-01-19T15:34:29.828Z,4.97
2023-01-19T15:37:33.231Z,6.35
2023-01-19T15:40:36.093Z,9.40
2023-01-19T15:43:39.154Z,6.57
2023-01-19T15:46:41.963Z,7.72
2023-01-19T15:49:45.025Z,10.80
2023-01-19T15:52:47.895Z,8.60
2023-01-19T15:55:52.675Z,9.05
2023-01-19T15:58:56.825Z,7.27
2023-01-19T16:02:00.122Z,8.85
2023-01-19T16:05:03.871Z,5.87
2023-01-19T16:08:06.676Z,8.32
2023-01-19T16:11:16.021Z,10.55
2023-01-19T16:14:19.005Z,7.30
2023-01-19T16:17:22.182Z,6.60
2023-01-19T16:20:24.967Z,5.12
2023-01-19T16:23:28.244Z,8.60
2023-01-19T16:26:34.684Z,8.00
2023-01-19T16:29:37.999Z,5.90
2023-01-19T16:32:40.858Z,5.32
2023-01-19T16:35:44.472Z,6.28
2023-01-19T16:38:47.643Z,7.82
2023-01-19T16:41:50.867Z,10.23
2023-01-19T16:44:55.025Z,8.50
2023-01-19T16:47:58.345Z,7.10
2023-01-19T16:51:07.251Z,6.95
2023-01-19T16:54:29.578Z,7.93
2023-01-19T16:57:33.236Z,11.30
2023-01-19T17:00:38.968Z,5.65
2023-01-19T17:03:43.066Z,9.60
2023-01-19T17:06:47.051Z,4.40
2023-01-19T17:09:50.675Z,10.35
2023-01-19T17:12:54.820Z,7.77
2023-01-19T17:16:02.976Z,9.10
2023-01-19T17:19:08.061Z,7.10
2023-01-19T17:22:13.529Z,8.75
2023-01-19T17:25:17.752Z,9.05
2023-01-19T17:28:21.143Z,5.20
2023-01-19T17:31:28.007Z,6.05
2023-01-19T17:34:30.862Z,9.30
2023-01-19T17:37:36.932Z,9.18
2023-01-19T17:40:40.399Z,9.13
2023-01-19T17:43:45.263Z,10.23
2023-01-19T17:46:48.940Z,7.80
2023-01-19T17:49:54.785Z,10.18
2023-01-19T17:52:58.995Z,8.30
2023-01-19T17:56:14.971Z,8.63
2023-01-19T17:59:19.313Z,9.45
2023-01-19T18:02:26.846Z,8.02
2023-01-19T18:05:33.890Z,7.75
2023-01-19T18:08:43.578Z,8.13
2023-01-19T18:11:48.119Z,4.60
2023-01-19T18:14:52.152Z,8.93
2023-01-19T18:17:57.427Z,8.73
2023-01-19T18:21:03.687Z,3.40
2023-01-19T18:24:08.083Z,6.30
2023-01-19T18:27:12.285Z,6.10
2023-01-19T18:30:17.631Z,8.52
2023-01-19T18:33:21.015Z,7.95
2023-01-19T18:36:25.911Z,8.20
2023-01-19T18:39:31.861Z,3.90
2023-01-19T18:42:36.393Z,8.60
2023-01-19T18:45:42.795Z,6.85
2023-01-19T18:48:47.760Z,9.05
2023-01-19T18:51:53.022Z,5.47
2023-01-19T18:54:57.506Z,9.27
2023-01-19T18:58:02.253Z,9.55
2023-01-19T19:01:33.227Z,7.30
2023-01-19T19:04:37.422Z,6.97
2023-01-19T19:07:43.017Z,8.40
2023-01-19T19:10:50.740Z,6.50
2023-01-19T19:13:57.866Z,7.72
2023-01-19T19:17:01.957Z,7.55
2023-01-19T19:20:06.866Z,4.10
2023-01-19T19:23:12.437Z,5.85
2023-01-19T19:26:16.487Z,7.22
2023-01-19T19:29:20.480Z,8.93
2023-01-19T19:32:24.573Z,7.55
2023-01-19T19:35:31.283Z,8.17
2023-01-19T19:38:44.624Z,7.53
2023-01-19T19:41:50.475Z,6.72
2023-01-19T19:44:57.746Z,8.38
2023-01-19T19:48:02.215Z,5.40
2023-01-19T19:51:18.539Z,5.67
2023-01-19T19:54:23.415Z,7.55
2023-01-19T19:57:34.482Z,6.32
2023-01-19T20:00:38.912Z,5.12
2023-01-19T20:03:43.640Z,8.05
2023-01-19T20:06:48.620Z,8.77
2023-01-19T20:09:54.327Z,6.47
2023-01-19T20:12:57.851Z,6.25
2023-01-19T20:16:07.191Z,7.82
2023-01-19T20:19:13.690Z,7.33
2023-01-19T20:22:18.872Z,4.75
2023-01-19T20:25:22.893Z,5.32
2023-01-19T20:28:27.682Z,4.40
2023-01-19T20:31:35.119Z,3.58
2023-01-19T20:34:39.814Z,3.92
2023-01-19T20:37:43.887Z,5.78
2023-01-19T20:40:48.594Z,6.70
2023-01-19T20:43:53.499Z,5.57
2023-01-19T20:46:59.078Z,7.93
2023-01-19T20:50:02.803Z,5.45
2023-01-19T20:53:07.295Z,5.10
2023-01-19T20:56:13.746Z,4.95
2023-01-19T20:59:18.237Z,5.07
2023-01-19T21:02:22.574Z,5.15
2023-01-19T21:05:26.696Z,4.62
2023-01-19T21:08:31.161Z,5.05
2023-01-19T21:11:36.880Z,7.70
2023-01-19T21:14:40.548Z,6.93
2023-01-19T21:17:45.228Z,5.55
2023-01-19T21:20:49.692Z,6.53
2023-01-19T21:23:55.651Z,6.32
2023-01-19T21:26:58.680Z,4.00
2023-01-19T21:30:02.636Z,7.37
2023-01-19T21:33:08.134Z,5.68
2023-01-19T21:36:11.725Z,7.20
2023-01-19T21:39:17.190Z,7.45
2023-01-19T21:42:20.581Z,5.90
2023-01-19T21:45:23.896Z,4.60
2023-01-19T21:48:27.501Z,7.45
2023-01-19T21:51:34.999Z,8.45
2023-01-19T21:54:38.275Z,5.62
2023-01-19T21:57:41.241Z,9.60
2023-01-19T22:00:45.355Z,8.43
2023-01-19T22:03:48.595Z,8.20
2023-01-19T22:06:51.361Z,8.07
2023-01-19T22:09:54.366Z,8.55
2023-01-19T22:12:57.104Z,8.63
2023-01-19T22:16:01.615Z,9.52
2023-01-19T22:19:04.484Z,6.12
2023-01-19T22:22:07.538Z,7.20
2023-01-19T22:25:10.598Z,7.05
2023-01-19T22:28:13.766Z,9.90
2023-01-19T22:31:18.579Z,8.63
2023-01-19T22:34:21.781Z,9.50
2023-01-19T22:37:24.796Z,7.68
2023-01-19T22:40:27.998Z,6.65
2023-01-19T22:43:30.767Z,8.80
2023-01-19T22:46:36.565Z,8.45
2023-01-19T22:49:39.349Z,8.60
2023-01-19T22:52:42.699Z,9.45
2023-01-19T22:55:45.487Z,10.60
2023-01-19T22:58:49.406Z,10.25
2023-01-19T23:01:52.462Z,10.55
2023-01-19T23:04:55.635Z,10.68
2023-01-19T23:07:58.413Z,6.05
2023-01-19T23:11:10.157Z,8.67
2023-01-19T23:14:16.470Z,9.45
2023-01-19T23:17:19.670Z,8.65
2023-01-19T23:20:22.607Z,10.65
2023-01-19T23:23:25.628Z,8.87
2023-01-19T23:26:31.028Z,9.07
2023-01-19T23:29:34.272Z,10.20
2023-01-19T23:32:37.121Z,11.15
2023-01-19T23:35:40.266Z,9.85
2023-01-19T23:38:48.032Z,9.87
2023-01-19T23:41:51.271Z,9.68
2023-01-19T23:44:54.055Z,9.18
2023-01-19T23:47:57.119Z,10.27
2023-01-19T23:51:00.000Z,10.40
2023-01-19T23:54:03.126Z,10.20
2023-01-19T23:57:05.806Z,10.63
